Time;durP1;ratioP1;P1;durP2;ratioP2;P2;SDS_P1;SDS_P2;PMS_P1;PMS_P2;Temp;Humidity;BMP_temperature;BMP_pressure;BME280_temperature;BME280_humidity;BME280_pressure;Samples;Min_cycle;Max_cycle;Signal;HPM_P1;HPM_P2
2021/07/24 00:00:41;;;;;;;12.40;8.87;;;20.50;92.00;;;;;;5052869;28;20481;-54
2021/07/24 00:03:09;;;;;;;9.33;8.53;;;20.50;92.30;;;;;;5052594;28;20445;-54
2021/07/24 00:05:35;;;;;;;10.70;9.80;;;20.50;92.10;;;;;;5053052;28;20444;-55
2021/07/24 00:08:02;;;;;;;12.43;8.43;;;20.50;92.20;;;;;;5052546;28;20475;-55
2021/07/24 00:10:28;;;;;;;10.23;9.33;;;20.50;92.60;;;;;;5052749;28;20753;-54
2021/07/24 00:12:55;;;;;;;10.60;8.80;;;20.50;92.30;;;;;;5052831;28;20450;-55
2021/07/24 00:15:21;;;;;;;9.57;8.67;;;20.50;92.30;;;;;;5052530;28;20501;-55
2021/07/24 00:17:48;;;;;;;10.53;9.13;;;20.50;92.40;;;;;;5052870;28;20562;-55
2021/07/24 00:20:16;;;;;;;10.53;8.73;;;20.40;92.50;;;;;;5052567;28;20431;-54
2021/07/24 00:22:42;;;;;;;9.60;7.57;;;20.40;92.70;;;;;;5052844;28;20892;-55
2021/07/24 00:25:10;;;;;;;8.67;7.77;;;20.40;92.60;;;;;;5052901;28;20493;-55
2021/07/24 00:27:37;;;;;;;9.10;8.20;;;20.40;92.60;;;;;;5052823;28;21094;-54
2021/07/24 00:30:04;;;;;;;9.23;8.37;;;20.30;92.80;;;;;;5052520;28;20812;-54
2021/07/24 00:32:32;;;;;;;13.50;8.27;;;20.30;93.30;;;;;;5034415;28;20461;-54
2021/07/24 00:35:00;;;;;;;12.00;9.20;;;20.40;93.20;;;;;;5052880;28;20475;-54
2021/07/24 00:37:28;;;;;;;9.00;8.10;;;20.20;93.20;;;;;;5052721;28;20427;-54
2021/07/24 00:39:54;;;;;;;11.13;8.60;;;20.20;93.10;;;;;;5052328;28;20443;-54
2021/07/24 00:42:23;;;;;;;13.43;8.87;;;20.20;93.20;;;;;;5052815;28;20462;-54
2021/07/24 00:44:52;;;;;;;10.40;7.53;;;20.10;93.30;;;;;;5034412;28;20481;-54
2021/07/24 00:47:20;;;;;;;9.17;8.27;;;20.10;93.20;;;;;;5034215;28;20963;-54
2021/07/24 00:49:49;;;;;;;9.60;8.43;;;20.10;93.20;;;;;;5033745;28;20452;-54
2021/07/24 00:52:17;;;;;;;10.20;9.20;;;20.10;93.30;;;;;;5052456;28;20913;-54
2021/07/24 00:54:45;;;;;;;10.03;8.40;;;20.10;93.50;;;;;;5052284;28;20478;-55
2021/07/24 00:57:13;;;;;;;10.37;8.57;;;20.10;93.50;;;;;;5052285;28;20424;-54
2021/07/24 00:59:40;;;;;;;9.00;8.20;;;20.00;93.40;;;;;;5052224;28;20495;-54
2021/07/24 01:02:06;;;;;;;10.07;8.43;;;20.00;93.40;;;;;;5052210;28;20527;-54
2021/07/24 01:04:33;;;;;;;10.23;8.70;;;20.00;93.30;;;;;;5034273;28;20560;-54
2021/07/24 01:07:04;;;;;;;9.77;7.80;;;20.00;93.30;;;;;;5034473;28;20487;-54
2021/07/24 01:09:32;;;;;;;11.10;8.30;;;20.00;93.60;;;;;;5033999;28;20855;-54
2021/07/24 01:12:02;;;;;;;9.20;8.30;;;20.00;93.40;;;;;;5052333;28;20430;-55
2021/07/24 01:14:32;;;;;;;10.20;8.63;;;20.00;93.50;;;;;;5034372;28;20487;-54
2021/07/24 01:16:58;;;;;;;8.30;7.33;;;19.90;93.40;;;;;;5034607;28;20882;-54
2021/07/24 01:19:29;;;;;;;10.57;8.57;;;19.90;93.50;;;;;;5033957;28;20460;-55
2021/07/24 01:21:58;;;;;;;9.00;8.10;;;19.90;93.50;;;;;;5052354;28;20431;-54
2021/07/24 01:24:26;;;;;;;10.73;8.63;;;19.90;93.60;;;;;;5034201;28;20447;-54
2021/07/24 01:26:54;;;;;;;11.37;8.73;;;19.90;93.60;;;;;;5034093;28;20547;-54
2021/07/24 01:29:22;;;;;;;10.37;8.80;;;19.90;93.70;;;;;;5051964;28;20889;-54
2021/07/24 01:31:54;;;;;;;11.47;10.00;;;19.90;93.70;;;;;;5052220;28;20459;-54
2021/07/24 01:34:22;;;;;;;13.70;8.57;;;19.90;93.90;;;;;;5034091;28;20474;-54
2021/07/24 01:36:49;;;;;;;10.70;9.43;;;19.90;93.90;;;;;;5051866;28;20438;-54
2021/07/24 01:39:18;;;;;;;10.77;9.03;;;19.90;94.00;;;;;;5033669;28;20494;-54
2021/07/24 01:41:46;;;;;;;13.17;9.57;;;19.80;94.00;;;;;;5051969;28;20509;-54
2021/07/24 01:44:14;;;;;;;10.17;9.03;;;19.80;94.10;;;;;;5051930;28;20439;-55
2021/07/24 01:46:41;;;;;;;12.27;10.07;;;19.80;94.20;;;;;;5033769;28;20448;-54
2021/07/24 01:55:12;;;;;;;12.53;11.30;;;19.80;94.50;;;;;;5052096;28;20491;-54
2021/07/24 01:57:49;;;;;;;11.97;10.77;;;19.80;94.70;;;;;;5033481;28;20554;-54
2021/07/24 02:00:18;;;;;;;12.80;10.10;;;19.70;94.70;;;;;;5032764;28;20984;-54
2021/07/24 02:02:51;;;;;;;14.40;10.30;;;19.70;94.90;;;;;;5051813;28;20532;-54
2021/07/24 02:05:35;;;;;;;13.43;11.40;;;19.70;95.00;;;;;;5033437;28;20500;-54
2021/07/24 02:08:06;;;;;;;16.57;11.10;;;19.70;95.10;;;;;;5032997;28;21023;-55
2021/07/24 02:10:35;;;;;;;12.20;11.00;;;19.70;95.30;;;;;;5033516;28;20927;-54
2021/07/24 02:13:02;;;;;;;12.17;10.87;;;19.80;95.40;;;;;;5033277;28;20448;-54
2021/07/24 02:15:32;;;;;;;13.03;11.80;;;19.60;95.50;;;;;;5033035;28;20475;-54
2021/07/24 02:18:00;;;;;;;13.07;11.77;;;19.60;95.60;;;;;;5032808;28;21017;-55
2021/07/24 02:20:29;;;;;;;12.27;11.07;;;19.60;95.70;;;;;;5033307;28;20482;-54
2021/07/24 02:22:57;;;;;;;12.53;11.20;;;19.60;95.80;;;;;;5033273;28;20553;-54
2021/07/24 02:25:24;;;;;;;14.30;11.80;;;19.60;96.00;;;;;;5033186;28;20548;-54
2021/07/24 02:27:53;;;;;;;13.63;12.23;;;19.60;96.10;;;;;;5032919;28;20472;-54
2021/07/24 02:30:21;;;;;;;12.43;11.17;;;19.60;96.20;;;;;;5032668;28;20458;-54
2021/07/24 02:32:47;;;;;;;16.20;11.80;;;19.50;96.30;;;;;;5033029;28;20455;-54
2021/07/24 02:35:15;;;;;;;14.60;11.70;;;19.50;96.40;;;;;;5032856;28;20467;-54
2021/07/24 02:38:01;;;;;;;13.00;11.77;;;19.50;96.50;;;;;;5049692;28;20774;-55
2021/07/24 02:40:28;;;;;;;13.60;12.13;;;19.50;96.60;;;;;;5049326;28;20895;-55
2021/07/24 02:43:07;;;;;;;15.20;12.90;;;19.50;96.70;;;;;;5032332;28;20480;-54
2021/07/24 02:45:34;;;;;;;14.67;13.10;;;19.50;96.90;;;;;;5032358;28;20451;-55
2021/07/24 02:48:01;;;;;;;15.77;14.23;;;19.50;97.10;;;;;;5032423;28;20554;-54
2021/07/24 02:50:29;;;;;;;14.80;13.37;;;19.50;97.20;;;;;;5032614;28;20451;-55
2021/07/24 02:52:56;;;;;;;14.37;13.03;;;19.50;97.40;;;;;;5032564;28;20528;-54
2021/07/24 02:55:24;;;;;;;15.17;13.57;;;19.60;97.50;;;;;;5032676;28;20509;-54
2021/07/24 02:57:50;;;;;;;19.80;15.03;;;19.50;97.60;;;;;;5050830;28;20809;-54
2021/07/24 03:00:19;;;;;;;16.10;13.67;;;19.70;97.90;;;;;;5049974;28;20468;-54
2021/07/24 03:02:45;;;;;;;16.57;14.97;;;19.50;98.20;;;;;;5050663;28;20438;-54
2021/07/24 03:05:12;;;;;;;17.60;14.10;;;19.50;97.90;;;;;;5050338;28;20435;-54
2021/07/24 03:07:39;;;;;;;16.40;14.80;;;19.50;98.00;;;;;;5050539;28;20477;-55
2021/07/24 03:10:07;;;;;;;15.87;14.27;;;19.50;98.20;;;;;;5050079;28;20922;-54
2021/07/24 03:12:33;;;;;;;16.53;14.73;;;19.40;98.20;;;;;;5050229;28;20853;-54
2021/07/24 03:15:00;;;;;;;17.50;15.80;;;19.50;98.40;;;;;;5050080;28;20784;-54
2021/07/24 03:17:29;;;;;;;18.80;15.67;;;19.40;98.50;;;;;;5050119;28;20442;-54
2021/07/24 03:19:58;;;;;;;15.97;14.53;;;19.50;98.70;;;;;;5049976;28;20433;-55
2021/07/24 03:22:24;;;;;;;16.60;15.00;;;19.80;98.90;;;;;;5050410;28;20496;-54
2021/07/24 03:24:51;;;;;;;21.60;16.10;;;19.50;98.80;;;;;;5050531;28;20442;-54
2021/07/24 03:27:18;;;;;;;23.40;14.70;;;19.50;98.90;;;;;;5050008;28;20435;-54
2021/07/24 03:29:44;;;;;;;16.50;14.83;;;19.50;99.00;;;;;;5049954;28;20450;-54
2021/07/24 03:32:11;;;;;;;19.30;16.33;;;19.50;99.00;;;;;;5049870;28;20435;-54
2021/07/24 03:34:38;;;;;;;17.97;15.20;;;19.50;99.10;;;;;;5050206;28;20474;-54
2021/07/24 03:37:05;;;;;;;17.40;15.60;;;19.70;99.20;;;;;;5050082;28;20538;-54
2021/07/24 03:39:32;;;;;;;16.63;15.03;;;19.50;99.20;;;;;;5049690;28;20557;-54
2021/07/24 03:41:58;;;;;;;17.27;15.57;;;19.50;99.10;;;;;;5050123;28;20442;-54
2021/07/24 03:44:25;;;;;;;18.63;16.80;;;19.60;99.20;;;;;;5050005;28;20438;-54
2021/07/24 03:46:51;;;;;;;17.47;15.67;;;19.60;99.10;;;;;;5049850;28;20439;-54
2021/07/24 03:49:18;;;;;;;18.57;16.40;;;19.60;99.10;;;;;;5049668;28;20459;-55
2021/07/24 03:51:46;;;;;;;18.13;16.53;;;19.60;99.10;;;;;;5050149;28;20518;-54
2021/07/24 03:54:12;;;;;;;19.83;17.83;;;19.60;99.10;;;;;;5050072;28;20830;-54
2021/07/24 03:56:39;;;;;;;25.00;16.00;;;19.70;99.20;;;;;;5049716;28;20937;-54
2021/07/24 03:59:06;;;;;;;18.60;16.70;;;19.50;99.10;;;;;;5049823;28;20518;-55
2021/07/24 04:01:32;;;;;;;18.10;16.10;;;19.70;99.20;;;;;;5050067;28;20463;-55
2021/07/24 04:03:59;;;;;;;16.47;14.60;;;19.70;99.10;;;;;;5049988;28;20486;-55
2021/07/24 04:06:27;;;;;;;17.63;15.80;;;19.70;99.10;;;;;;5049735;28;20433;-54
2021/07/24 04:08:57;;;;;;;18.50;16.57;;;20.00;99.20;;;;;;5049065;28;20501;-54
2021/07/24 04:11:25;;;;;;;17.37;15.23;;;19.80;99.00;;;;;;5049816;28;20451;-54
2021/07/24 04:13:52;;;;;;;19.17;15.07;;;19.90;99.00;;;;;;5049557;28;20431;-53
2021/07/24 04:16:19;;;;;;;17.80;15.67;;;20.00;99.00;;;;;;5031770;28;20462;-54
2021/07/24 04:18:46;;;;;;;16.07;14.53;;;20.10;98.90;;;;;;5049314;28;20459;-53
2021/07/24 04:21:13;;;;;;;18.17;15.00;;;20.20;98.80;;;;;;5049675;28;20935;-54
2021/07/24 04:23:40;;;;;;;18.17;15.97;;;20.30;98.60;;;;;;5049925;28;20518;-54
2021/07/24 04:26:08;;;;;;;15.80;14.20;;;20.40;98.40;;;;;;5053328;28;20495;-54
2021/07/24 04:28:35;;;;;;;17.10;15.10;;;20.50;98.10;;;;;;5053073;28;20645;-54
2021/07/24 04:31:01;;;;;;;16.27;14.67;;;20.60;97.90;;;;;;5053303;28;20430;-53
2021/07/24 04:33:28;;;;;;;16.03;14.00;;;20.70;97.80;;;;;;5053264;28;20437;-54
2021/07/24 04:35:54;;;;;;;19.83;15.07;;;20.90;97.70;;;;;;5053138;28;20482;-53
2021/07/24 04:38:21;;;;;;;20.27;14.83;;;20.90;97.30;;;;;;5052624;28;20466;-53
2021/07/24 04:40:47;;;;;;;16.20;13.80;;;21.00;97.10;;;;;;5052927;28;20442;-53
2021/07/24 04:43:16;;;;;;;16.40;14.70;;;21.10;96.70;;;;;;5053043;28;20444;-53
2021/07/24 04:45:43;;;;;;;15.50;14.10;;;21.30;96.50;;;;;;5052810;28;20438;-53
2021/07/24 04:48:10;;;;;;;16.47;14.43;;;21.50;96.30;;;;;;5052637;28;20457;-53
2021/07/24 04:50:41;;;;;;;15.37;13.77;;;21.40;95.90;;;;;;5052964;28;20429;-53
2021/07/24 04:53:08;;;;;;;17.33;14.23;;;21.60;95.70;;;;;;5052847;28;20434;-53
2021/07/24 04:55:37;;;;;;;16.73;13.97;;;21.70;95.50;;;;;;5052543;28;20961;-53
2021/07/24 04:58:05;;;;;;;18.40;14.63;;;21.80;95.30;;;;;;5052452;28;20481;-53
2021/07/24 05:00:35;;;;;;;16.20;14.57;;;21.90;95.20;;;;;;5052655;28;20465;-53
2021/07/24 05:03:03;;;;;;;14.40;13.00;;;22.00;95.10;;;;;;5052733;28;20976;-53
2021/07/24 05:05:30;;;;;;;18.53;14.53;;;22.00;94.80;;;;;;5052692;28;20434;-53
2021/07/24 05:07:56;;;;;;;15.40;13.83;;;22.10;94.70;;;;;;5076383;22;20506;-53
2021/07/24 05:10:23;;;;;;;14.80;13.30;;;22.20;94.40;;;;;;5052699;28;20440;-53
2021/07/24 05:12:50;;;;;;;14.93;13.43;;;22.20;94.30;;;;;;5052950;28;20434;-53
2021/07/24 05:15:16;;;;;;;15.20;13.60;;;22.30;94.20;;;;;;5052814;28;20486;-53
2021/07/24 05:17:44;;;;;;;16.10;14.40;;;22.40;94.10;;;;;;5052840;28;20445;-54
2021/07/24 05:20:11;;;;;;;17.67;14.33;;;22.40;93.80;;;;;;5034407;28;20464;-54
2021/07/24 05:22:38;;;;;;;15.47;13.87;;;22.50;93.80;;;;;;5052704;28;20435;-53
2021/07/24 05:25:05;;;;;;;15.63;14.00;;;22.50;93.60;;;;;;5034643;28;20444;-53
2021/07/24 05:27:32;;;;;;;16.40;14.27;;;22.60;93.40;;;;;;5052258;28;20439;-53
2021/07/24 05:29:58;;;;;;;14.57;13.17;;;22.70;93.30;;;;;;5052273;28;20534;-51
2021/07/24 05:32:25;;;;;;;14.23;12.77;;;22.60;93.00;;;;;;5052477;28;20936;-51
2021/07/24 05:34:53;;;;;;;14.70;13.23;;;22.80;92.90;;;;;;5052269;28;20888;-54
2021/07/24 05:37:19;;;;;;;14.53;13.00;;;22.90;92.80;;;;;;5051893;28;20431;-51
2021/07/24 05:39:46;;;;;;;16.53;14.93;;;23.00;92.80;;;;;;5052129;28;20459;-54
2021/07/24 05:42:13;;;;;;;15.97;14.30;;;23.00;92.60;;;;;;5052314;28;20442;-50
2021/07/24 05:44:39;;;;;;;16.33;14.47;;;23.10;92.40;;;;;;5052135;28;20460;-51
2021/07/24 05:47:06;;;;;;;16.33;14.60;;;23.30;92.40;;;;;;5052067;28;20440;-51
2021/07/24 05:49:33;;;;;;;14.50;13.17;;;23.30;92.10;;;;;;5051753;28;20631;-50
2021/07/24 05:52:01;;;;;;;15.40;13.90;;;23.30;92.00;;;;;;5052298;28;20438;-51
2021/07/24 05:54:28;;;;;;;15.80;13.70;;;23.40;91.80;;;;;;5051866;28;20440;-52
2021/07/24 05:56:54;;;;;;;17.23;15.60;;;23.50;91.70;;;;;;5052135;28;20456;-50
2021/07/24 05:59:21;;;;;;;16.30;14.60;;;23.60;91.60;;;;;;5051558;28;20461;-52
2021/07/24 06:01:48;;;;;;;14.63;13.13;;;23.70;91.50;;;;;;5051863;28;20445;-52
2021/07/24 06:04:14;;;;;;;15.77;14.13;;;23.70;91.40;;;;;;5051983;28;20439;-51
2021/07/24 06:06:41;;;;;;;14.50;13.10;;;23.90;91.30;;;;;;5051983;28;20528;-51
2021/07/24 06:09:09;;;;;;;14.30;13.00;;;23.90;91.10;;;;;;5051219;28;20492;-50
2021/07/24 06:11:35;;;;;;;16.77;13.30;;;24.00;91.00;;;;;;5051652;28;20433;-52
2021/07/24 06:14:02;;;;;;;16.23;14.67;;;24.10;91.00;;;;;;5051697;28;20441;-52
2021/07/24 06:16:28;;;;;;;15.40;13.67;;;24.10;90.80;;;;;;5051402;28;20848;-51
2021/07/24 06:18:55;;;;;;;16.30;14.67;;;24.20;90.60;;;;;;5051448;28;20460;-51
2021/07/24 06:21:21;;;;;;;14.70;13.30;;;24.30;90.80;;;;;;5051281;28;20747;-51
2021/07/24 06:23:48;;;;;;;17.10;14.00;;;24.30;90.20;;;;;;5051376;28;20435;-52
2021/07/24 06:26:16;;;;;;;15.67;14.07;;;24.40;90.10;;;;;;5051206;28;20427;-51
2021/07/24 06:28:42;;;;;;;18.57;14.10;;;24.50;90.10;;;;;;5050849;28;20469;-52
2021/07/24 06:31:09;;;;;;;15.70;14.10;;;24.50;89.80;;;;;;5051442;28;20721;-52
2021/07/24 06:33:36;;;;;;;16.37;13.70;;;24.70;89.90;;;;;;5051148;28;20441;-52
2021/07/24 06:36:02;;;;;;;15.10;13.60;;;24.70;89.60;;;;;;5033128;28;20485;-51
2021/07/24 06:38:29;;;;;;;16.10;13.63;;;24.80;89.50;;;;;;5050722;28;20446;-52
2021/07/24 06:40:57;;;;;;;15.57;13.57;;;24.80;88.70;;;;;;5051185;28;20434;-52
2021/07/24 06:43:25;;;;;;;14.40;13.00;;;24.90;88.70;;;;;;5050919;28;20445;-52
2021/07/24 06:45:53;;;;;;;15.43;13.60;;;24.90;88.90;;;;;;5033058;28;21037;-52
2021/07/24 06:48:19;;;;;;;16.97;15.30;;;24.90;88.20;;;;;;5050122;28;20578;-53
2021/07/24 06:50:46;;;;;;;15.80;14.20;;;25.00;88.00;;;;;;5051013;28;20439;-52
2021/07/24 06:53:13;;;;;;;16.43;14.67;;;25.00;88.00;;;;;;5050780;28;20433;-52
2021/07/24 06:55:39;;;;;;;16.27;13.70;;;25.00;88.10;;;;;;5050846;28;20831;-52
2021/07/24 06:58:06;;;;;;;18.13;14.07;;;24.80;87.30;;;;;;5050420;28;20462;-52
2021/07/24 07:00:34;;;;;;;15.33;13.73;;;25.00;87.30;;;;;;5050993;28;20439;-52
2021/07/24 07:03:01;;;;;;;14.83;13.40;;;25.10;87.40;;;;;;5050961;28;20430;-52
2021/07/24 07:05:28;;;;;;;15.23;13.63;;;25.10;87.40;;;;;;5050862;28;20465;-52
2021/07/24 07:07:55;;;;;;;15.13;13.53;;;25.10;87.30;;;;;;5050570;28;20508;-52
2021/07/24 07:10:22;;;;;;;14.30;13.00;;;25.10;87.20;;;;;;5050027;28;20446;-52
2021/07/24 07:12:49;;;;;;;15.37;13.97;;;25.20;87.10;;;;;;5050540;28;20435;-52
2021/07/24 07:15:17;;;;;;;14.03;12.63;;;25.20;86.80;;;;;;5050381;28;20478;-52
2021/07/24 07:17:44;;;;;;;15.13;13.67;;;25.20;86.10;;;;;;5050773;28;20441;-52
2021/07/24 07:20:11;;;;;;;15.17;13.67;;;25.20;86.10;;;;;;5050515;28;20438;-52
2021/07/24 07:22:38;;;;;;;18.47;13.80;;;25.20;85.90;;;;;;5050461;28;20725;-52
2021/07/24 07:25:06;;;;;;;16.77;14.87;;;25.20;85.60;;;;;;5050147;28;20533;-52
2021/07/24 07:27:32;;;;;;;14.07;12.50;;;25.20;85.40;;;;;;5050129;28;20430;-52
2021/07/24 07:29:59;;;;;;;16.63;14.93;;;25.30;85.60;;;;;;5049987;28;20812;-52
2021/07/24 07:32:25;;;;;;;17.93;14.67;;;25.30;85.50;;;;;;5050533;28;20438;-52
2021/07/24 07:34:54;;;;;;;14.80;13.30;;;25.30;85.20;;;;;;5050721;28;20453;-52
2021/07/24 07:37:21;;;;;;;16.27;14.20;;;25.40;85.10;;;;;;5050831;28;20493;-52
2021/07/24 07:39:48;;;;;;;14.57;13.17;;;25.40;85.00;;;;;;5032892;28;20830;-52
2021/07/24 07:42:14;;;;;;;16.03;14.43;;;25.50;84.60;;;;;;5051069;28;20436;-52
2021/07/24 07:44:41;;;;;;;15.03;13.57;;;25.50;84.30;;;;;;5051110;28;20434;-52
2021/07/24 07:47:07;;;;;;;16.40;14.10;;;25.50;84.40;;;;;;5051112;28;20438;-52
2021/07/24 07:49:34;;;;;;;16.47;14.83;;;25.50;84.50;;;;;;5050577;28;20446;-52
2021/07/24 07:52:02;;;;;;;14.80;13.20;;;25.50;84.40;;;;;;5050928;28;20439;-52
2021/07/24 07:54:30;;;;;;;14.77;13.37;;;25.60;84.70;;;;;;5050782;28;20476;-52
2021/07/24 07:56:57;;;;;;;14.70;13.30;;;25.50;84.00;;;;;;5050653;28;20783;-52
2021/07/24 07:59:24;;;;;;;15.53;14.03;;;25.60;83.70;;;;;;5051742;28;20462;-52
2021/07/24 08:01:50;;;;;;;15.47;13.97;;;25.70;83.40;;;;;;5054658;28;20451;-52
2021/07/24 08:04:17;;;;;;;16.50;14.90;;;25.70;83.40;;;;;;5054658;28;20795;-52
2021/07/24 08:06:44;;;;;;;14.97;13.50;;;25.70;82.80;;;;;;5054126;28;20457;-52
2021/07/24 08:09:13;;;;;;;15.90;14.30;;;25.80;82.60;;;;;;5036167;28;21005;-52
2021/07/24 08:11:39;;;;;;;15.20;13.80;;;25.80;82.70;;;;;;5054593;28;20674;-52
2021/07/24 08:14:06;;;;;;;16.23;14.73;;;25.80;82.80;;;;;;5054508;28;20449;-52
2021/07/24 08:16:32;;;;;;;15.80;14.20;;;25.80;82.40;;;;;;5054154;28;20466;-52
2021/07/24 08:18:59;;;;;;;18.33;14.27;;;25.80;82.20;;;;;;5053814;28;20454;-52
2021/07/24 08:21:26;;;;;;;16.00;14.50;;;25.90;81.80;;;;;;5054070;28;20446;-52
2021/07/24 08:23:52;;;;;;;16.23;14.47;;;25.90;81.60;;;;;;5053990;28;20517;-52
2021/07/24 08:26:20;;;;;;;15.50;13.50;;;25.90;80.80;;;;;;5035700;28;20824;-52
2021/07/24 08:28:47;;;;;;;16.27;14.67;;;25.90;80.40;;;;;;5053678;28;20450;-52
2021/07/24 08:31:15;;;;;;;19.73;14.27;;;25.90;80.10;;;;;;5035907;28;20899;-52
2021/07/24 08:33:42;;;;;;;16.17;14.53;;;26.00;79.90;;;;;;5054530;28;20466;-52
2021/07/24 08:36:09;;;;;;;17.13;13.90;;;26.00;80.10;;;;;;5053810;28;20474;-52
2021/07/24 08:38:35;;;;;;;16.93;15.17;;;26.10;80.00;;;;;;5052992;28;20837;-52
2021/07/24 08:41:02;;;;;;;16.33;14.73;;;26.10;79.80;;;;;;5053872;28;20443;-52
2021/07/24 08:43:30;;;;;;;16.47;14.37;;;26.20;79.10;;;;;;5053743;28;20440;-51
2021/07/24 08:45:58;;;;;;;17.10;14.30;;;26.20;78.10;;;;;;5053254;28;20507;-51
2021/07/24 08:48:24;;;;;;;15.43;13.90;;;26.00;77.20;;;;;;5053370;28;20453;-52
2021/07/24 08:50:54;;;;;;;16.23;14.70;;;26.20;77.40;;;;;;5053642;28;20536;-52
2021/07/24 08:53:24;;;;;;;14.80;13.30;;;26.20;77.20;;;;;;5053364;28;20446;-52
2021/07/24 08:56:00;;;;;;;15.10;13.70;;;26.30;77.20;;;;;;5035414;28;20471;-51
2021/07/24 08:58:29;;;;;;;20.70;14.80;;;26.30;76.40;;;;;;5052932;28;20503;-51
2021/07/24 09:00:56;;;;;;;15.40;13.20;;;26.30;76.00;;;;;;5053084;28;20430;-52
2021/07/24 09:03:26;;;;;;;15.97;14.33;;;26.30;75.20;;;;;;5053433;28;20438;-52
2021/07/24 09:05:54;;;;;;;15.73;14.13;;;26.40;75.00;;;;;;5053441;28;20431;-52
2021/07/24 09:08:24;;;;;;;14.57;13.20;;;26.40;74.90;;;;;;5052490;28;20470;-52
2021/07/24 09:10:51;;;;;;;14.50;13.20;;;26.50;74.50;;;;;;5035059;28;20575;-52
2021/07/24 09:13:18;;;;;;;15.30;13.73;;;26.50;74.30;;;;;;5052984;28;20473;-52
2021/07/24 09:15:46;;;;;;;16.97;14.07;;;26.50;73.60;;;;;;5052880;28;20438;-51
2021/07/24 09:18:13;;;;;;;14.03;12.80;;;26.50;72.90;;;;;;5052679;28;20458;-52
2021/07/24 09:20:41;;;;;;;14.93;13.63;;;26.50;72.80;;;;;;5053033;28;20464;-51
2021/07/24 09:23:33;;;;;;;14.10;12.70;;;26.60;72.70;;;;;;5035175;28;20447;-52
2021/07/24 09:26:01;;;;;;;14.70;13.30;;;26.40;71.30;;;;;;5025611;28;20872;-52
2021/07/24 09:28:27;;;;;;;14.60;13.20;;;26.60;71.80;;;;;;5052588;28;21001;-52
2021/07/24 09:30:55;;;;;;;15.77;14.17;;;26.60;71.90;;;;;;5052751;28;20534;-52
2021/07/24 09:33:22;;;;;;;14.80;13.30;;;26.70;72.10;;;;;;5052673;28;20824;-52
2021/07/24 09:35:52;;;;;;;15.10;13.70;;;26.70;71.80;;;;;;5052500;28;20456;-52
2021/07/24 09:38:27;;;;;;;16.00;14.30;;;26.80;72.10;;;;;;5051995;28;20497;-52
2021/07/24 09:40:55;;;;;;;14.87;13.40;;;26.80;71.40;;;;;;5052740;28;20477;-51
2021/07/24 09:43:30;;;;;;;15.80;14.40;;;26.80;70.70;;;;;;5052587;28;20446;-52
2021/07/24 09:46:15;;;;;;;16.60;14.80;;;26.90;70.70;;;;;;5052408;28;20496;-52
2021/07/24 09:48:43;;;;;;;14.40;12.50;;;26.90;69.70;;;;;;5051948;28;20977;-52
2021/07/24 09:51:09;;;;;;;14.80;13.30;;;26.90;69.30;;;;;;5051968;28;20767;-52
2021/07/24 09:53:40;;;;;;;15.10;13.50;;;26.90;68.80;;;;;;5052310;28;20430;-52
2021/07/24 09:56:11;;;;;;;14.07;12.43;;;26.90;67.60;;;;;;5052556;28;20835;-52
2021/07/24 09:58:39;;;;;;;16.70;14.13;;;27.00;67.70;;;;;;5052138;28;20453;-52
2021/07/24 10:01:06;;;;;;;14.80;11.97;;;27.00;67.30;;;;;;5052395;28;20439;-52
2021/07/24 10:03:36;;;;;;;15.77;14.27;;;27.00;67.10;;;;;;5034227;28;20442;-52
2021/07/24 10:06:11;;;;;;;15.27;13.67;;;27.10;67.00;;;;;;5052565;28;20513;-52
2021/07/24 10:08:40;;;;;;;13.97;12.60;;;27.10;66.20;;;;;;5051542;28;20989;-52
2021/07/24 10:11:06;;;;;;;14.00;12.77;;;27.10;65.90;;;;;;5051950;28;20903;-52
2021/07/24 10:13:33;;;;;;;14.80;13.50;;;27.10;65.80;;;;;;5052380;28;20434;-52
2021/07/24 10:16:01;;;;;;;14.10;12.60;;;27.20;66.10;;;;;;5052013;28;20460;-52
2021/07/24 10:18:28;;;;;;;15.40;13.77;;;27.20;66.30;;;;;;5051720;28;20462;-52
2021/07/24 10:20:56;;;;;;;14.73;13.27;;;27.20;65.80;;;;;;5051572;28;20438;-52
2021/07/24 10:23:24;;;;;;;15.87;14.27;;;27.20;66.00;;;;;;5051220;28;20514;-52
2021/07/24 10:25:56;;;;;;;14.33;12.13;;;27.00;65.90;;;;;;5051775;28;20508;-52
2021/07/24 10:28:28;;;;;;;14.57;12.93;;;27.20;66.30;;;;;;5051580;28;20457;-52
2021/07/24 10:30:56;;;;;;;15.40;13.80;;;27.20;66.50;;;;;;5051900;28;20480;-52
2021/07/24 10:33:24;;;;;;;14.27;12.80;;;27.20;66.10;;;;;;5051792;28;20786;-52
2021/07/24 10:35:51;;;;;;;13.80;12.50;;;27.30;65.80;;;;;;5051660;28;20788;-52
2021/07/24 10:38:56;;;;;;;14.43;13.03;;;27.30;65.50;;;;;;5051239;28;20540;-52
2021/07/24 10:41:36;;;;;;;14.97;13.57;;;27.40;64.80;;;;;;5051266;28;20441;-52
2021/07/24 10:44:04;;;;;;;13.80;12.47;;;27.40;64.80;;;;;;5051728;28;20426;-52
2021/07/24 10:47:08;;;;;;;16.27;14.03;;;27.40;65.00;;;;;;5051075;28;20423;-53
2021/07/24 10:49:54;;;;;;;15.27;13.77;;;27.40;63.80;;;;;;5033109;28;20470;-53
2021/07/24 10:52:21;;;;;;;15.10;13.67;;;27.40;63.50;;;;;;5051442;28;20918;-54
2021/07/24 10:55:13;;;;;;;14.30;12.90;;;27.40;64.00;;;;;;5051408;28;20682;-52
2021/07/24 10:58:08;;;;;;;14.97;13.57;;;27.50;63.90;;;;;;5051098;28;20488;-52
2021/07/24 11:00:40;;;;;;;15.60;14.00;;;27.60;63.20;;;;;;5051174;28;20997;-53
2021/07/24 11:03:48;;;;;;;14.37;12.30;;;27.60;63.70;;;;;;5033413;28;20500;-52
2021/07/24 11:06:29;;;;;;;13.57;12.27;;;27.60;63.50;;;;;;5050993;28;20480;-52
2021/07/24 11:09:17;;;;;;;15.13;13.27;;;27.60;63.40;;;;;;5074242;22;20503;-54
2021/07/24 11:12:06;;;;;;;13.60;12.40;;;27.70;63.60;;;;;;5049410;28;20461;-54
2021/07/24 11:14:49;;;;;;;13.47;12.17;;;27.70;62.30;;;;;;5049586;28;20863;-54
2021/07/24 11:17:16;;;;;;;14.17;12.67;;;27.70;62.30;;;;;;5049653;28;20505;-55
2021/07/24 11:19:45;;;;;;;14.13;12.83;;;27.70;62.20;;;;;;5049113;28;20750;-53
2021/07/24 11:22:14;;;;;;;13.10;11.90;;;27.70;62.10;;;;;;5049512;28;20434;-54
2021/07/24 11:24:41;;;;;;;13.33;12.03;;;27.80;62.00;;;;;;5049508;28;20526;-54
2021/07/24 11:27:10;;;;;;;14.07;12.73;;;27.80;61.90;;;;;;5049467;28;20482;-54
2021/07/24 11:29:38;;;;;;;16.23;12.83;;;27.80;61.20;;;;;;5048990;28;20480;-54
2021/07/24 11:32:06;;;;;;;13.67;12.43;;;27.80;61.30;;;;;;5031324;28;20520;-54
2021/07/24 11:34:34;;;;;;;13.90;12.40;;;27.90;61.50;;;;;;5051485;28;20442;-54
2021/07/24 11:37:01;;;;;;;13.07;11.27;;;27.80;61.20;;;;;;5053877;28;20495;-54
2021/07/24 11:39:29;;;;;;;13.93;12.43;;;27.80;61.70;;;;;;5053403;28;20454;-54
2021/07/24 11:41:56;;;;;;;15.93;13.60;;;27.80;62.00;;;;;;5053040;28;20832;-54
2021/07/24 11:44:28;;;;;;;13.57;12.17;;;27.90;62.40;;;;;;5035678;28;20451;-56
2021/07/24 11:46:56;;;;;;;13.77;12.37;;;28.00;62.00;;;;;;5053262;28;20426;-54
2021/07/24 11:49:23;;;;;;;14.37;12.43;;;28.00;61.80;;;;;;5052968;28;20511;-53
2021/07/24 11:51:50;;;;;;;13.50;12.27;;;28.00;61.60;;;;;;5053303;28;20441;-54
2021/07/24 11:54:27;;;;;;;14.80;12.33;;;28.00;61.70;;;;;;5053063;28;20434;-54
2021/07/24 11:56:54;;;;;;;14.40;13.00;;;28.10;61.00;;;;;;5052662;28;20570;-54
2021/07/24 11:59:21;;;;;;;13.63;12.33;;;28.10;60.90;;;;;;5052996;28;20571;-54
2021/07/24 12:01:49;;;;;;;13.00;11.70;;;28.10;61.10;;;;;;5053172;28;20774;-54
2021/07/24 12:04:16;;;;;;;14.20;11.50;;;28.20;60.80;;;;;;5053219;28;20443;-54
2021/07/24 12:06:51;;;;;;;14.53;12.07;;;28.30;60.30;;;;;;5053245;28;20461;-54
2021/07/24 12:09:19;;;;;;;12.93;11.60;;;28.40;59.70;;;;;;5052793;28;20577;-54
2021/07/24 12:11:49;;;;;;;13.77;12.30;;;28.50;59.60;;;;;;5052936;28;20526;-55
2021/07/24 12:14:16;;;;;;;13.53;12.23;;;28.60;59.30;;;;;;5052880;28;20502;-54
2021/07/24 12:16:42;;;;;;;12.70;11.10;;;28.70;59.20;;;;;;5052906;28;20514;-54
2021/07/24 12:19:18;;;;;;;12.30;11.10;;;28.80;58.80;;;;;;5052384;28;20454;-54
2021/07/24 12:21:46;;;;;;;12.77;11.67;;;28.90;58.30;;;;;;5052840;28;20489;-54
2021/07/24 12:24:23;;;;;;;12.30;11.20;;;28.90;58.10;;;;;;5052447;28;20429;-54
2021/07/24 12:26:50;;;;;;;13.10;11.90;;;28.90;57.90;;;;;;5052225;28;20492;-54
2021/07/24 12:29:24;;;;;;;14.67;12.93;;;28.80;57.80;;;;;;5052510;28;20881;-54
2021/07/24 12:31:52;;;;;;;13.30;12.00;;;28.80;57.60;;;;;;5052206;28;20526;-55
2021/07/24 12:34:21;;;;;;;11.60;10.60;;;28.80;57.60;;;;;;5052829;28;20517;-54
2021/07/24 12:36:52;;;;;;;13.90;12.50;;;28.90;57.60;;;;;;5052469;28;20435;-54
2021/07/24 12:39:21;;;;;;;14.43;12.90;;;28.90;57.50;;;;;;5052342;28;20446;-55
2021/07/24 12:41:57;;;;;;;13.67;12.37;;;28.90;57.60;;;;;;5052413;28;20438;-54